sensor_id;sensor_type;location;lat;lon;timestamp;pressure;altitude;pressure_sealevel;temperature;humidity
1207;BME280;593;53.184;8.216;2023-11-22T00:00:22;102442.03;;;6.61;100.00
1207;BME280;593;53.184;8.216;2023-11-22T00:02:47;102427.50;;;6.56;100.00
1207;BME280;593;53.184;8.216;2023-11-22T00:05:13;102448.47;;;6.60;100.00
1207;BME280;593;53.184;8.216;2023-11-22T00:07:38;102447.63;;;6.60;100.00
1207;BME280;593;53.184;8.216;2023-11-22T00:10:04;102458.88;;;6.57;100.00
1207;BME280;593;53.184;8.216;2023-11-22T00:12:30;102452.66;;;6.56;100.00
1207;BME280;593;53.184;8.216;2023-11-22T00:15:02;102447.25;;;6.56;100.00
1207;BME280;593;53.184;8.216;2023-11-22T00:17:29;102449.31;;;6.54;100.00
1207;BME280;593;53.184;8.216;2023-11-22T00:19:54;102447.66;;;6.53;100.00
1207;BME280;593;53.184;8.216;2023-11-22T00:22:20;102452.47;;;6.51;100.00
1207;BME280;593;53.184;8.216;2023-11-22T00:24:45;102450.16;;;6.48;100.00
1207;BME280;593;53.184;8.216;2023-11-22T00:27:15;102444.97;;;6.46;100.00
1207;BME280;593;53.184;8.216;2023-11-22T00:29:41;102439.56;;;6.46;100.00
1207;BME280;593;53.184;8.216;2023-11-22T00:32:06;102434.38;;;6.45;100.00
1207;BME280;593;53.184;8.216;2023-11-22T00:34:32;102422.94;;;6.36;100.00
1207;BME280;593;53.184;8.216;2023-11-22T00:36:58;102429.59;;;6.40;100.00
1207;BME280;593;53.184;8.216;2023-11-22T00:39:24;102444.56;;;6.36;100.00
1207;BME280;593;53.184;8.216;2023-11-22T00:41:49;102451.44;;;6.32;100.00
1207;BME280;593;53.184;8.216;2023-11-22T00:44:18;102449.78;;;6.31;100.00
1207;BME280;593;53.184;8.216;2023-11-22T00:46:43;102446.66;;;6.28;100.00
1207;BME280;593;53.184;8.216;2023-11-22T00:49:10;102454.78;;;6.28;100.00
1207;BME280;593;53.184;8.216;2023-11-22T00:51:36;102459.75;;;6.24;100.00
1207;BME280;593;53.184;8.216;2023-11-22T00:54:01;102471.63;;;6.23;100.00
1207;BME280;593;53.184;8.216;2023-11-22T00:56:26;102473.06;;;6.19;100.00
1207;BME280;593;53.184;8.216;2023-11-22T00:58:52;102483.03;;;6.19;100.00
1207;BME280;593;53.184;8.216;2023-11-22T01:01:19;102475.56;;;6.14;100.00
1207;BME280;593;53.184;8.216;2023-11-22T01:03:45;102475.16;;;6.11;100.00
1207;BME280;593;53.184;8.216;2023-11-22T01:06:10;102471.41;;;6.05;100.00
1207;BME280;593;53.184;8.216;2023-11-22T01:08:35;102455.84;;;6.01;100.00
1207;BME280;593;53.184;8.216;2023-11-22T01:11:02;102463.31;;;6.05;100.00
1207;BME280;593;53.184;8.216;2023-11-22T01:13:29;102460.00;;;6.03;100.00
1207;BME280;593;53.184;8.216;2023-11-22T01:15:54;102458.13;;;5.97;100.00
1207;BME280;593;53.184;8.216;2023-11-22T01:18:20;102478.69;;;5.98;100.00
1207;BME280;593;53.184;8.216;2023-11-22T01:20:45;102466.63;;;5.94;100.00
1207;BME280;593;53.184;8.216;2023-11-22T01:23:10;102485.13;;;5.91;100.00
1207;BME280;593;53.184;8.216;2023-11-22T01:25:36;102486.38;;;5.88;100.00
1207;BME280;593;53.184;8.216;2023-11-22T01:28:01;102484.91;;;5.86;100.00
1207;BME280;593;53.184;8.216;2023-11-22T01:30:27;102494.88;;;5.85;100.00
1207;BME280;593;53.184;8.216;2023-11-22T01:32:54;102485.75;;;5.86;100.00
1207;BME280;593;53.184;8.216;2023-11-22T01:35:20;102500.28;;;5.85;100.00
1207;BME280;593;53.184;8.216;2023-11-22T01:37:46;102492.53;;;5.82;100.00
1207;BME280;593;53.184;8.216;2023-11-22T01:40:11;102503.34;;;5.82;100.00
1207;BME280;593;53.184;8.216;2023-11-22T01:42:38;102514.16;;;5.82;100.00
1207;BME280;593;53.184;8.216;2023-11-22T01:45:08;102518.53;;;5.83;100.00
1207;BME280;593;53.184;8.216;2023-11-22T01:47:35;102517.69;;;5.82;100.00
1207;BME280;593;53.184;8.216;2023-11-22T01:50:03;102528.69;;;5.81;100.00
1207;BME280;593;53.184;8.216;2023-11-22T01:52:30;102515.59;;;5.78;100.00
1207;BME280;593;53.184;8.216;2023-11-22T01:54:56;102521.84;;;5.78;100.00
1207;BME280;593;53.184;8.216;2023-11-22T01:57:22;102517.47;;;5.77;100.00
1207;BME280;593;53.184;8.216;2023-11-22T01:59:47;102524.94;;;5.75;100.00
1207;BME280;593;53.184;8.216;2023-11-22T02:02:13;102533.88;;;5.76;100.00
1207;BME280;593;53.184;8.216;2023-11-22T02:04:38;102534.91;;;5.75;100.00
1207;BME280;593;53.184;8.216;2023-11-22T02:07:04;102527.03;;;5.73;100.00
1207;BME280;593;53.184;8.216;2023-11-22T02:09:30;102522.44;;;5.67;100.00
1207;BME280;593;53.184;8.216;2023-11-22T02:11:55;102518.28;;;5.65;100.00
1207;BME280;593;53.184;8.216;2023-11-22T02:14:20;102516.63;;;5.70;100.00
1207;BME280;593;53.184;8.216;2023-11-22T02:16:46;102514.13;;;5.69;100.00
1207;BME280;593;53.184;8.216;2023-11-22T02:19:16;102511.41;;;5.69;100.00
1207;BME280;593;53.184;8.216;2023-11-22T02:21:41;102502.91;;;5.65;100.00
1207;BME280;593;53.184;8.216;2023-11-22T02:24:07;102503.31;;;5.62;100.00
1207;BME280;593;53.184;8.216;2023-11-22T02:26:32;102508.28;;;5.59;100.00
1207;BME280;593;53.184;8.216;2023-11-22T02:28:59;102519.50;;;5.62;100.00
1207;BME280;593;53.184;8.216;2023-11-22T02:31:25;102516.59;;;5.57;100.00
1207;BME280;593;53.184;8.216;2023-11-22T02:33:51;102515.13;;;5.55;100.00
1207;BME280;593;53.184;8.216;2023-11-22T02:36:16;102511.81;;;5.53;100.00
1207;BME280;593;53.184;8.216;2023-11-22T02:38:42;102520.69;;;5.47;100.00
1207;BME280;593;53.184;8.216;2023-11-22T02:41:09;102525.47;;;5.51;100.00
1207;BME280;593;53.184;8.216;2023-11-22T02:43:34;102514.06;;;5.49;100.00
1207;BME280;593;53.184;8.216;2023-11-22T02:46:01;102509.06;;;5.46;100.00
1207;BME280;593;53.184;8.216;2023-11-22T02:48:26;102520.09;;;5.45;100.00
1207;BME280;593;53.184;8.216;2023-11-22T02:50:51;102522.16;;;5.43;100.00
1207;BME280;593;53.184;8.216;2023-11-22T02:53:19;102518.00;;;5.40;100.00
1207;BME280;593;53.184;8.216;2023-11-22T02:55:44;102504.47;;;5.34;100.00
1207;BME280;593;53.184;8.216;2023-11-22T02:58:10;102517.56;;;5.37;100.00
1207;BME280;593;53.184;8.216;2023-11-22T03:00:37;102512.38;;;5.35;100.00
1207;BME280;593;53.184;8.216;2023-11-22T03:03:03;102505.53;;;5.33;100.00
1207;BME280;593;53.184;8.216;2023-11-22T03:05:33;102516.72;;;5.30;100.00
1207;BME280;593;53.184;8.216;2023-11-22T03:07:58;102507.16;;;5.27;100.00
1207;BME280;593;53.184;8.216;2023-11-22T03:10:24;102517.31;;;5.25;100.00
1207;BME280;593;53.184;8.216;2023-11-22T03:12:49;102512.31;;;5.22;100.00
1207;BME280;593;53.184;8.216;2023-11-22T03:15:14;102519.97;;;5.18;100.00
1207;BME280;593;53.184;8.216;2023-11-22T03:17:40;102528.72;;;5.21;100.00
1207;BME280;593;53.184;8.216;2023-11-22T03:20:06;102537.59;;;5.14;100.00
1207;BME280;593;53.184;8.216;2023-11-22T03:22:36;102549.84;;;5.17;100.00
1207;BME280;593;53.184;8.216;2023-11-22T03:25:02;102556.06;;;5.17;100.00
1207;BME280;593;53.184;8.216;2023-11-22T03:27:29;102560.00;;;5.15;100.00
1207;BME280;593;53.184;8.216;2023-11-22T03:29:54;102561.25;;;5.12;100.00
1207;BME280;593;53.184;8.216;2023-11-22T03:32:20;102568.31;;;5.13;100.00
1207;BME280;593;53.184;8.216;2023-11-22T03:34:45;102574.72;;;5.12;100.00
1207;BME280;593;53.184;8.216;2023-11-22T03:37:11;102564.78;;;5.13;100.00
1207;BME280;593;53.184;8.216;2023-11-22T03:39:36;102578.44;;;5.11;100.00
1207;BME280;593;53.184;8.216;2023-11-22T03:42:02;102583.84;;;5.11;100.00
1207;BME280;593;53.184;8.216;2023-11-22T03:44:27;102585.50;;;5.12;100.00
1207;BME280;593;53.184;8.216;2023-11-22T03:46:54;102581.13;;;5.05;100.00
1207;BME280;593;53.184;8.216;2023-11-22T03:49:19;102592.34;;;5.08;100.00
1207;BME280;593;53.184;8.216;2023-11-22T03:51:45;102579.03;;;5.00;100.00
1207;BME280;593;53.184;8.216;2023-11-22T03:54:11;102579.03;;;5.07;100.00
1207;BME280;593;53.184;8.216;2023-11-22T03:56:37;102576.94;;;5.02;100.00
1207;BME280;593;53.184;8.216;2023-11-22T03:59:03;102573.22;;;5.03;100.00
1207;BME280;593;53.184;8.216;2023-11-22T04:01:29;102574.66;;;4.99;100.00
1207;BME280;593;53.184;8.216;2023-11-22T04:03:54;102564.91;;;4.98;100.00
1207;BME280;593;53.184;8.216;2023-11-22T04:06:19;102556.16;;;4.96;100.00
1207;BME280;593;53.184;8.216;2023-11-22T04:08:46;102552.22;;;4.92;100.00
1207;BME280;593;53.184;8.216;2023-11-22T04:11:15;102540.34;;;4.87;100.00
1207;BME280;593;53.184;8.216;2023-11-22T04:13:40;102550.13;;;4.88;100.00
1207;BME280;593;53.184;8.216;2023-11-22T04:16:06;102547.59;;;4.86;100.00
1207;BME280;593;53.184;8.216;2023-11-22T04:18:34;102555.69;;;4.86;100.00
1207;BME280;593;53.184;8.216;2023-11-22T04:21:01;102552.34;;;4.84;100.00
1207;BME280;593;53.184;8.216;2023-11-22T04:23:26;102555.19;;;4.76;100.00
1207;BME280;593;53.184;8.216;2023-11-22T04:25:51;102572.28;;;4.83;100.00
1207;BME280;593;53.184;8.216;2023-11-22T04:28:17;102571.00;;;4.79;100.00
1207;BME280;593;53.184;8.216;2023-11-22T04:30:43;102569.34;;;4.78;100.00
1207;BME280;593;53.184;8.216;2023-11-22T04:33:08;102573.06;;;4.77;100.00
1207;BME280;593;53.184;8.216;2023-11-22T04:35:33;102567.03;;;4.75;100.00
1207;BME280;593;53.184;8.216;2023-11-22T04:38:02;102570.50;;;4.69;100.00
1207;BME280;593;53.184;8.216;2023-11-22T04:40:27;102580.44;;;4.69;100.00
1207;BME280;593;53.184;8.216;2023-11-22T04:42:53;102581.50;;;4.68;100.00
1207;BME280;593;53.184;8.216;2023-11-22T04:45:18;102597.84;;;4.66;100.00
1207;BME280;593;53.184;8.216;2023-11-22T04:47:43;102606.13;;;4.65;100.00
1207;BME280;593;53.184;8.216;2023-11-22T04:50:12;102611.47;;;4.58;100.00
1207;BME280;593;53.184;8.216;2023-11-22T04:52:38;102620.44;;;4.65;100.00
1207;BME280;593;53.184;8.216;2023-11-22T04:55:03;102612.50;;;4.57;100.00
1207;BME280;593;53.184;8.216;2023-11-22T04:57:29;102625.38;;;4.62;100.00
1207;BME280;593;53.184;8.216;2023-11-22T04:59:55;102645.06;;;4.62;100.00
1207;BME280;593;53.184;8.216;2023-11-22T05:02:20;102649.84;;;4.60;100.00
1207;BME280;593;53.184;8.216;2023-11-22T05:04:45;102628.28;;;4.60;100.00
1207;BME280;593;53.184;8.216;2023-11-22T05:07:15;102624.94;;;4.58;100.00
1207;BME280;593;53.184;8.216;2023-11-22T05:09:41;102624.94;;;4.58;100.00
1207;BME280;593;53.184;8.216;2023-11-22T05:12:11;102613.25;;;4.51;100.00
1207;BME280;593;53.184;8.216;2023-11-22T05:14:37;102602.88;;;4.48;100.00
1207;BME280;593;53.184;8.216;2023-11-22T05:17:04;102612.44;;;4.50;100.00
1207;BME280;593;53.184;8.216;2023-11-22T05:19:29;102605.59;;;4.48;100.00
1207;BME280;593;53.184;8.216;2023-11-22T05:21:55;102599.53;;;4.46;100.00
1207;BME280;593;53.184;8.216;2023-11-22T05:24:20;102595.00;;;4.46;100.00
1207;BME280;593;53.184;8.216;2023-11-22T05:26:46;102587.94;;;4.45;100.00
1207;BME280;593;53.184;8.216;2023-11-22T05:29:11;102575.63;;;4.36;100.00
1207;BME280;593;53.184;8.216;2023-11-22T05:31:36;102576.72;;;4.42;100.00
1207;BME280;593;53.184;8.216;2023-11-22T05:34:02;102574.78;;;4.36;100.00
1207;BME280;593;53.184;8.216;2023-11-22T05:36:28;102580.00;;;4.37;100.00
1207;BME280;593;53.184;8.216;2023-11-22T05:38:55;102573.53;;;4.32;100.00
1207;BME280;593;53.184;8.216;2023-11-22T05:41:20;102583.91;;;4.35;100.00
1207;BME280;593;53.184;8.216;2023-11-22T05:43:46;102580.75;;;4.31;100.00
1207;BME280;593;53.184;8.216;2023-11-22T05:46:11;102602.13;;;4.33;100.00
1207;BME280;593;53.184;8.216;2023-11-22T05:48:37;102603.16;;;4.32;100.00
1207;BME280;593;53.184;8.216;2023-11-22T05:51:03;102601.28;;;4.32;100.00
1207;BME280;593;53.184;8.216;2023-11-22T05:53:28;102608.75;;;4.30;100.00
1207;BME280;593;53.184;8.216;2023-11-22T05:55:54;102609.97;;;4.28;100.00
1207;BME280;593;53.184;8.216;2023-11-22T05:58:19;102609.50;;;4.24;100.00
1207;BME280;593;53.184;8.216;2023-11-22T06:00:45;102604.06;;;4.18;100.00
1207;BME280;593;53.184;8.216;2023-11-22T06:03:12;102601.00;;;4.21;100.00
1207;BME280;593;53.184;8.216;2023-11-22T06:05:38;102603.94;;;4.26;100.00
1207;BME280;593;53.184;8.216;2023-11-22T06:08:03;102605.22;;;4.30;100.00
1207;BME280;593;53.184;8.216;2023-11-22T06:10:29;102599.63;;;4.31;100.00
1207;BME280;593;53.184;8.216;2023-11-22T06:12:54;102601.09;;;4.34;100.00
1207;BME280;593;53.184;8.216;2023-11-22T06:15:20;102596.75;;;4.33;100.00
1207;BME280;593;53.184;8.216;2023-11-22T06:17:47;102604.63;;;4.34;100.00
1207;BME280;593;53.184;8.216;2023-11-22T06:20:14;102598.41;;;4.34;100.00
1207;BME280;593;53.184;8.216;2023-11-22T06:22:39;102600.66;;;4.30;100.00
1207;BME280;593;53.184;8.216;2023-11-22T06:25:11;102609.16;;;4.34;100.00
1207;BME280;593;53.184;8.216;2023-11-22T06:27:37;102599.22;;;4.34;100.00
1207;BME280;593;53.184;8.216;2023-11-22T06:30:03;102601.72;;;4.36;100.00
1207;BME280;593;53.184;8.216;2023-11-22T06:32:28;102606.31;;;4.35;100.00
1207;BME280;593;53.184;8.216;2023-11-22T06:34:54;102611.47;;;4.37;100.00
1207;BME280;593;53.184;8.216;2023-11-22T06:37:19;102609.81;;;4.36;100.00
1207;BME280;593;53.184;8.216;2023-11-22T06:39:46;102622.06;;;4.38;100.00
1207;BME280;593;53.184;8.216;2023-11-22T06:42:11;102627.25;;;4.40;100.00
1207;BME280;593;53.184;8.216;2023-11-22T06:44:38;102632.44;;;4.41;100.00
1207;BME280;593;53.184;8.216;2023-11-22T06:47:05;102640.34;;;4.43;100.00
1207;BME280;593;53.184;8.216;2023-11-22T06:49:30;102644.06;;;4.42;100.00
1207;BME280;593;53.184;8.216;2023-11-22T06:51:56;102652.78;;;4.44;100.00
1207;BME280;593;53.184;8.216;2023-11-22T06:54:21;102645.91;;;4.41;100.00
1207;BME280;593;53.184;8.216;2023-11-22T06:56:47;102637.44;;;4.44;100.00
1207;BME280;593;53.184;8.216;2023-11-22T06:59:12;102628.34;;;4.45;100.00
1207;BME280;593;53.184;8.216;2023-11-22T07:01:38;102627.31;;;4.46;100.00
1207;BME280;593;53.184;8.216;2023-11-22T07:04:05;102627.13;;;4.48;100.00
1207;BME280;593;53.184;8.216;2023-11-22T07:06:32;102631.44;;;4.42;100.00
1207;BME280;593;53.184;8.216;2023-11-22T07:08:57;102631.47;;;4.49;100.00
1207;BME280;593;53.184;8.216;2023-11-22T07:11:24;102638.94;;;4.47;100.00
1207;BME280;593;53.184;8.216;2023-11-22T07:13:53;102639.56;;;4.49;100.00
1207;BME280;593;53.184;8.216;2023-11-22T07:16:18;102642.25;;;4.49;100.00
1207;BME280;593;53.184;8.216;2023-11-22T07:18:45;102646.44;;;4.51;100.00
1207;BME280;593;53.184;8.216;2023-11-22T07:21:11;102641.41;;;4.48;100.00
1207;BME280;593;53.184;8.216;2023-11-22T07:23:37;102654.97;;;4.55;100.00
1207;BME280;593;53.184;8.216;2023-11-22T07:26:03;102649.59;;;4.55;100.00
1207;BME280;593;53.184;8.216;2023-11-22T07:28:28;102638.59;;;4.57;100.00
1207;BME280;593;53.184;8.216;2023-11-22T07:30:54;102635.06;;;4.56;100.00
1207;BME280;593;53.184;8.216;2023-11-22T07:33:19;102621.34;;;4.51;100.00
1207;BME280;593;53.184;8.216;2023-11-22T07:35:46;102636.94;;;4.56;100.00
1207;BME280;593;53.184;8.216;2023-11-22T07:38:11;102633.22;;;4.57;100.00
1207;BME280;593;53.184;8.216;2023-11-22T07:40:37;102641.13;;;4.58;100.00
1207;BME280;593;53.184;8.216;2023-11-22T07:43:02;102630.09;;;4.53;100.00
1207;BME280;593;53.184;8.216;2023-11-22T07:45:32;102650.00;;;4.59;100.00
1207;BME280;593;53.184;8.216;2023-11-22T07:47:58;102651.91;;;4.58;100.00
1207;BME280;593;53.184;8.216;2023-11-22T07:50:25;102654.16;;;4.61;100.00
1207;BME280;593;53.184;8.216;2023-11-22T07:52:51;102656.06;;;4.61;100.00
1207;BME280;593;53.184;8.216;2023-11-22T07:55:17;102655.84;;;4.62;100.00
1207;BME280;593;53.184;8.216;2023-11-22T07:57:44;102667.66;;;4.61;100.00
1207;BME280;593;53.184;8.216;2023-11-22T08:00:10;102667.25;;;4.64;100.00
1207;BME280;593;53.184;8.216;2023-11-22T08:02:36;102674.13;;;4.67;100.00
1207;BME280;593;53.184;8.216;2023-11-22T08:05:05;102677.66;;;4.67;100.00
1207;BME280;593;53.184;8.216;2023-11-22T08:07:34;102680.16;;;4.69;100.00
1207;BME280;593;53.184;8.216;2023-11-22T08:10:00;102665.66;;;4.70;100.00
1207;BME280;593;53.184;8.216;2023-11-22T08:12:35;102671.91;;;4.70;100.00
1207;BME280;593;53.184;8.216;2023-11-22T08:15:02;102681.63;;;4.71;100.00
1207;BME280;593;53.184;8.216;2023-11-22T08:17:29;102695.78;;;4.73;100.00
1207;BME280;593;53.184;8.216;2023-11-22T08:19:54;102695.78;;;4.73;100.00
1207;BME280;593;53.184;8.216;2023-11-22T08:22:20;102689.16;;;4.76;100.00
1207;BME280;593;53.184;8.216;2023-11-22T08:24:46;102681.88;;;4.76;100.00
1207;BME280;593;53.184;8.216;2023-11-22T08:27:12;102679.84;;;4.78;100.00
1207;BME280;593;53.184;8.216;2023-11-22T08:29:43;102667.38;;;4.77;100.00
1207;BME280;593;53.184;8.216;2023-11-22T08:32:11;102669.50;;;4.82;100.00
1207;BME280;593;53.184;8.216;2023-11-22T08:34:36;102666.63;;;4.83;100.00
1207;BME280;593;53.184;8.216;2023-11-22T08:37:02;102675.72;;;4.82;100.00
1207;BME280;593;53.184;8.216;2023-11-22T08:39:27;102655.38;;;4.80;100.00
1207;BME280;593;53.184;8.216;2023-11-22T08:41:52;102660.00;;;4.86;100.00
1207;BME280;593;53.184;8.216;2023-11-22T08:44:18;102654.41;;;4.87;100.00
1207;BME280;593;53.184;8.216;2023-11-22T08:46:44;102639.06;;;4.88;100.00
1207;BME280;593;53.184;8.216;2023-11-22T08:49:12;102631.38;;;4.85;100.00
1207;BME280;593;53.184;8.216;2023-11-22T08:51:37;102642.19;;;4.91;100.00
1207;BME280;593;53.184;8.216;2023-11-22T08:54:03;102652.59;;;4.94;100.00
1207;BME280;593;53.184;8.216;2023-11-22T08:56:29;102652.41;;;4.96;100.00
1207;BME280;593;53.184;8.216;2023-11-22T08:58:54;102650.28;;;4.91;100.00
1207;BME280;593;53.184;8.216;2023-11-22T09:01:20;102650.53;;;4.96;100.00
1207;BME280;593;53.184;8.216;2023-11-22T09:03:45;102662.34;;;4.95;100.00
1207;BME280;593;53.184;8.216;2023-11-22T09:06:10;102680.03;;;5.04;100.00
1207;BME280;593;53.184;8.216;2023-11-22T09:08:36;102665.53;;;5.05;100.00
1207;BME280;593;53.184;8.216;2023-11-22T09:11:02;102659.94;;;5.07;100.00
1207;BME280;593;53.184;8.216;2023-11-22T09:13:31;102670.34;;;5.10;100.00
1207;BME280;593;53.184;8.216;2023-11-22T09:15:56;102666.63;;;5.11;100.00
1207;BME280;593;53.184;8.216;2023-11-22T09:18:21;102688.84;;;5.13;100.00
1207;BME280;593;53.184;8.216;2023-11-22T09:20:47;102692.78;;;5.17;100.00
1207;BME280;593;53.184;8.216;2023-11-22T09:23:13;102688.44;;;5.16;100.00
1207;BME280;593;53.184;8.216;2023-11-22T09:25:40;102699.66;;;5.19;100.00
1207;BME280;593;53.184;8.216;2023-11-22T09:28:05;102679.94;;;5.19;100.00
1207;BME280;593;53.184;8.216;2023-11-22T09:30:32;102686.41;;;5.25;100.00
1207;BME280;593;53.184;8.216;2023-11-22T09:35:25;102686.19;;;5.26;100.00
1207;BME280;593;53.184;8.216;2023-11-22T09:37:54;102684.41;;;5.33;100.00
1207;BME280;593;53.184;8.216;2023-11-22T09:40:19;102682.72;;;5.32;100.00
1207;BME280;593;53.184;8.216;2023-11-22T09:42:48;102687.28;;;5.32;100.00
1207;BME280;593;53.184;8.216;2023-11-22T09:45:20;102693.13;;;5.35;100.00
1207;BME280;593;53.184;8.216;2023-11-22T09:47:45;102691.50;;;5.41;100.00
1207;BME280;593;53.184;8.216;2023-11-22T09:50:19;102683.84;;;5.44;100.00
1207;BME280;593;53.184;8.216;2023-11-22T09:52:46;102692.56;;;5.46;100.00
1207;BME280;593;53.184;8.216;2023-11-22T09:55:15;102690.91;;;5.45;100.00
1207;BME280;593;53.184;8.216;2023-11-22T09:57:41;102687.41;;;5.51;100.00
1207;BME280;593;53.184;8.216;2023-11-22T10:00:09;102683.47;;;5.54;100.00
1207;BME280;593;53.184;8.216;2023-11-22T10:02:41;102671.63;;;5.48;100.00
1207;BME280;593;53.184;8.216;2023-11-22T10:05:07;102659.19;;;5.54;100.00
1207;BME280;593;53.184;8.216;2023-11-22T10:07:36;102652.13;;;5.53;100.00
1207;BME280;593;53.184;8.216;2023-11-22T10:10:03;102662.53;;;5.56;100.00
1207;BME280;593;53.184;8.216;2023-11-22T10:12:32;102661.09;;;5.60;100.00
1207;BME280;593;53.184;8.216;2023-11-22T10:15:11;102668.78;;;5.63;100.00
1207;BME280;593;53.184;8.216;2023-11-22T10:17:37;102668.41;;;5.66;100.00
1207;BME280;593;53.184;8.216;2023-11-22T10:20:03;102676.06;;;5.69;100.00
1207;BME280;593;53.184;8.216;2023-11-22T10:22:29;102684.00;;;5.70;100.00
1207;BME280;593;53.184;8.216;2023-11-22T10:24:58;102669.41;;;5.65;100.00
1207;BME280;593;53.184;8.216;2023-11-22T10:27:26;102682.31;;;5.69;100.00
1207;BME280;593;53.184;8.216;2023-11-22T10:29:51;102671.34;;;5.77;100.00
1207;BME280;593;53.184;8.216;2023-11-22T10:32:17;102658.69;;;5.78;100.00
1207;BME280;593;53.184;8.216;2023-11-22T10:34:42;102674.50;;;5.81;100.00
1207;BME280;593;53.184;8.216;2023-11-22T10:37:11;102667.03;;;5.83;100.00
1207;BME280;593;53.184;8.216;2023-11-22T10:39:36;102651.00;;;5.75;100.00
1207;BME280;593;53.184;8.216;2023-11-22T10:42:05;102662.28;;;5.85;100.00
1207;BME280;593;53.184;8.216;2023-11-22T10:44:33;102657.50;;;5.87;100.00
1207;BME280;593;53.184;8.216;2023-11-22T10:46:59;102663.13;;;5.92;100.00
1207;BME280;593;53.184;8.216;2023-11-22T10:49:26;102656.50;;;5.95;100.00
1207;BME280;593;53.184;8.216;2023-11-22T10:51:52;102644.22;;;5.92;100.00
1207;BME280;593;53.184;8.216;2023-11-22T10:54:20;102636.78;;;6.01;100.00
1207;BME280;593;53.184;8.216;2023-11-22T10:56:55;102607.25;;;5.99;100.00
1207;BME280;593;53.184;8.216;2023-11-22T10:59:22;102611.88;;;6.05;100.00
1207;BME280;593;53.184;8.216;2023-11-22T11:01:52;102594.59;;;6.06;100.00
1207;BME280;593;53.184;8.216;2023-11-22T11:04:31;102587.56;;;6.05;100.00
1207;BME280;593;53.184;8.216;2023-11-22T11:06:59;102582.38;;;6.10;100.00
1207;BME280;593;53.184;8.216;2023-11-22T11:09:27;102570.72;;;6.10;100.00
1207;BME280;593;53.184;8.216;2023-11-22T11:11:57;102554.31;;;6.11;100.00
1207;BME280;593;53.184;8.216;2023-11-22T11:14:23;102538.09;;;6.11;100.00
1207;BME280;593;53.184;8.216;2023-11-22T11:16:50;102520.44;;;6.15;100.00
1207;BME280;593;53.184;8.216;2023-11-22T11:19:19;102504.25;;;6.15;100.00
1207;BME280;593;53.184;8.216;2023-11-22T11:21:49;102498.22;;;6.20;100.00
1207;BME280;593;53.184;8.216;2023-11-22T11:24:15;102485.72;;;6.19;100.00
1207;BME280;593;53.184;8.216;2023-11-22T11:26:47;102481.78;;;6.21;100.00
1207;BME280;593;53.184;8.216;2023-11-22T11:29:33;102483.88;;;6.26;100.00
1207;BME280;593;53.184;8.216;2023-11-22T11:32:02;102456.22;;;6.17;100.00
1207;BME280;593;53.184;8.216;2023-11-22T11:34:27;102474.31;;;6.30;100.00
1207;BME280;593;53.184;8.216;2023-11-22T11:36:55;102458.94;;;6.30;100.00
1207;BME280;593;53.184;8.216;2023-11-22T11:39:26;102453.91;;;6.34;100.00
1207;BME280;593;53.184;8.216;2023-11-22T11:42:10;102436.91;;;6.33;100.00
1207;BME280;593;53.184;8.216;2023-11-22T11:44:36;102429.41;;;6.35;100.00
1207;BME280;593;53.184;8.216;2023-11-22T11:47:11;102414.88;;;6.30;100.00
1207;BME280;593;53.184;8.216;2023-11-22T11:49:40;102419.22;;;6.37;100.00
1207;BME280;593;53.184;8.216;2023-11-22T11:52:05;102426.47;;;6.37;100.00
1207;BME280;593;53.184;8.216;2023-11-22T11:54:31;102436.66;;;6.41;100.00
1207;BME280;593;53.184;8.216;2023-11-22T11:56:59;102438.31;;;6.42;100.00
1207;BME280;593;53.184;8.216;2023-11-22T11:59:26;102435.63;;;6.42;100.00
1207;BME280;593;53.184;8.216;2023-11-22T12:01:55;102438.94;;;6.44;100.00
1207;BME280;593;53.184;8.216;2023-11-22T12:04:24;102436.84;;;6.46;100.00
1207;BME280;593;53.184;8.216;2023-11-22T12:06:50;102427.72;;;6.47;100.00
1207;BME280;593;53.184;8.216;2023-11-22T12:09:26;102436.44;;;6.50;100.00
1207;BME280;593;53.184;8.216;2023-11-22T12:11:53;102426.47;;;6.50;99.98
1207;BME280;593;53.184;8.216;2023-11-22T12:14:25;102423.94;;;6.55;98.46
1207;BME280;593;53.184;8.216;2023-11-22T12:16:52;102425.22;;;6.53;97.95
1207;BME280;593;53.184;8.216;2023-11-22T12:19:27;102422.28;;;6.54;96.98
1207;BME280;593;53.184;8.216;2023-11-22T12:21:53;102421.25;;;6.55;96.49
1207;BME280;593;53.184;8.216;2023-11-22T12:24:19;102412.91;;;6.57;95.06
1207;BME280;593;53.184;8.216;2023-11-22T12:26:48;102422.47;;;6.59;95.22
1207;BME280;593;53.184;8.216;2023-11-22T12:29:16;102420.84;;;6.58;94.55
1207;BME280;593;53.184;8.216;2023-11-22T12:31:52;102424.78;;;6.56;95.40
1207;BME280;593;53.184;8.216;2023-11-22T12:34:20;102421.84;;;6.57;94.59
1207;BME280;593;53.184;8.216;2023-11-22T12:36:46;102428.09;;;6.58;93.50
1207;BME280;593;53.184;8.216;2023-11-22T12:39:12;102428.09;;;6.58;93.64
1207;BME280;593;53.184;8.216;2023-11-22T12:41:49;102434.97;;;6.60;92.68
1207;BME280;593;53.184;8.216;2023-11-22T12:44:16;102441.19;;;6.61;92.33
1207;BME280;593;53.184;8.216;2023-11-22T12:46:51;102442.03;;;6.61;91.87
1207;BME280;593;53.184;8.216;2023-11-22T12:49:25;102437.88;;;6.59;91.88
1207;BME280;593;53.184;8.216;2023-11-22T12:51:52;102439.94;;;6.63;90.35
1207;BME280;593;53.184;8.216;2023-11-22T12:54:18;102432.69;;;6.64;88.76
1207;BME280;593;53.184;8.216;2023-11-22T12:56:48;102424.34;;;6.65;87.15
1207;BME280;593;53.184;8.216;2023-11-22T12:59:14;102427.69;;;6.61;87.64
1207;BME280;593;53.184;8.216;2023-11-22T13:01:40;102422.47;;;6.66;87.80
1207;BME280;593;53.184;8.216;2023-11-22T13:04:05;102403.75;;;6.64;88.40
1207;BME280;593;53.184;8.216;2023-11-22T13:06:31;102424.75;;;6.69;87.20
1207;BME280;593;53.184;8.216;2023-11-22T13:08:56;102420.38;;;6.68;86.35
1207;BME280;593;53.184;8.216;2023-11-22T13:11:21;102418.28;;;6.70;84.74
1207;BME280;593;53.184;8.216;2023-11-22T13:13:47;102416.00;;;6.67;85.71
1207;BME280;593;53.184;8.216;2023-11-22T13:16:13;102422.25;;;6.67;85.35
1207;BME280;593;53.184;8.216;2023-11-22T13:18:39;102424.75;;;6.69;86.42
1207;BME280;593;53.184;8.216;2023-11-22T13:21:05;102423.91;;;6.68;85.57